Main page
METAR-TAF:

METAR-TAF

Airports :

Oil platform

Sleipner, Norway

latitude: 58-22-00N, longitude: 001-54-25E, elevation: 50 m

Current weather observation

The report was made 22 minutes ago, at 21:50 UTC
Wind 15 kt from the Southwest
Temperature 5°C
Humidity 70%
Pressure 994 hPa
Visibility 10 km or more

METAR: ENSL 222150Z AUTO 23015KT 9999NDV SCT065/// 05/00 Q0994 W04/S5

Time: 23:12 (22:12 UTC)

Forecast

The report was made 6 hours and 10 minutes ago, at 16:02 UTC
Forecast valid from 22 at 16 UTC to 22 at 18 UTC
Wind 35 kt from the Southwest
Visibility 10 km or more
Scattered clouds at a height of 1200 ft, Towering cumulus.
Broken clouds at a height of 2000 ft
light rain showers
Temporary
from 22 at 16 UTC to 22 at 18 UTC
Visibility: 4000 m
Broken clouds at a height of 1200 ft, Cumulonimbus.
rain showers
Becoming
from 22 at 16 UTC to 22 at 18 UTC
Wind 22 kt from the West

TAF: ENSL 221602Z 2216/2218 22035KT 9999 -SHRA SCT012TCU BKN020 TEMPO 2216/2218 4000 SHRA BKN012CB BECMG 2216/2218 27022KT

Weather observations and forecasts of more than 4000 airports (METAR and TAF reports).

The available stations are represented by yellow and red dots on the map.

Hover mouse over dot to see the name of the station.

Then click to see weather observations and forecasts.

To change the map : click on the green buttons with a black cross to zoom in, on the green button with a dash to zoom out, or on the green arrows for adjacent maps.


METAR-TAF: